Flight Track Log - Related Links

Times and Time Zones

All times are in EDT time to prevent confusion due to time zone crossing. See the KLM1227 flight status page for this flight to view local times or setup timezone preferences in your user account.

Time Position Orientation Groundspeed Altitude Reporting Facility
EDT Latitude Longitude Course Direction KTS MPH feet Rate Location/Type
Sun 01:27:00 AM 51.7820 4.3867 204° Southwest  Level Estimated
Sun 01:28:00 AM 51.7415 4.3580 204° Southwest  Level Estimated
Sun 01:29:00 AM 51.7009 4.3294 204° Southwest  Level Estimated
Sun 01:30:00 AM 51.6603 4.3008 204° Southwest  Level Estimated
Sun 01:31:00 AM 51.6197 4.2723 204° Southwest  Level Estimated
Sun 01:32:00 AM 51.5792 4.2439 204° Southwest  Level Estimated
Sun 01:33:00 AM 51.5386 4.2155 204° Southwest  Level Estimated
Sun 01:34:00 AM 51.4980 4.1872 203° Southwest  Level Estimated
Sun 01:35:00 AM 51.4574 4.1589 203° Southwest  Level Estimated
Sun 01:36:00 AM 51.4167 4.1306 203° Southwest  Level Estimated
Sun 01:37:00 AM 51.3761 4.1024 203° Southwest  Level Estimated
Sun 01:38:00 AM 51.3355 4.0743 203° Southwest  Level Estimated
Sun 01:39:00 AM 51.2949 4.0462 203° Southwest  Level Estimated
Sun 01:40:00 AM 51.2542 4.0181 203° Southwest  Level Estimated
Sun 01:41:00 AM 51.2136 3.9901 203° Southwest  Level Estimated
Sun 01:42:00 AM 51.1729 3.9622 203° Southwest  Level Estimated
Sun 01:43:00 AM 51.1323 3.9343 203° Southwest  Level Estimated
Sun 01:44:00 AM 51.0916 3.9064 203° Southwest  Level Estimated
Sun 01:45:00 AM 51.0509 3.8786 203° Southwest  Level Estimated
Sun 01:46:00 AM 51.0102 3.8509 203° Southwest  Level Estimated
Sun 01:47:00 AM 50.9696 3.8231 203° Southwest  Level Estimated
Sun 01:48:00 AM 50.9289 3.7955 203° Southwest  Level Estimated
Sun 01:49:00 AM 50.8748 3.7589 203° Southwest  Level Estimated
Sun 01:50:00 AM 50.8208 3.7223 203° Southwest  Level Estimated
Sun 01:51:00 AM 50.7667 3.6858 203° Southwest  Level Estimated
Sun 01:52:00 AM 50.7126 3.6494 203° Southwest  Level Estimated
Sun 01:53:00 AM 50.6585 3.6131 203° Southwest  Level Estimated
Sun 01:54:00 AM 50.6044 3.5769 203° Southwest  Level Estimated
Sun 01:55:00 AM 50.5503 3.5407 203° Southwest  Level Estimated
Sun 01:56:00 AM 50.4962 3.5047 203° Southwest  Level Estimated
Sun 01:57:00 AM 50.4421 3.4687 203° Southwest  Level Estimated
Sun 01:58:00 AM 50.3879 3.4328 203° Southwest  Level Estimated
Sun 01:59:00 AM 50.3338 3.3970 203° Southwest  Level Estimated
Sun 02:00:00 AM 50.2796 3.3613 203° Southwest  Level Estimated
Sun 02:01:00 AM 50.2254 3.3256 203° Southwest  Level Estimated
Sun 02:02:00 AM 50.1712 3.2901 203° Southwest  Level Estimated
Sun 02:03:00 AM 50.1170 3.2546 203° Southwest  Level Estimated
Sun 02:04:00 AM 50.0628 3.2192 203° Southwest  Level Estimated
Sun 02:05:00 AM 50.0086 3.1838 203° Southwest  Level Estimated
Sun 02:06:00 AM 49.9543 3.1486 203° Southwest  Level Estimated
Sun 02:07:00 AM 49.9001 3.1134 203° Southwest  Level Estimated
Sun 02:08:00 AM 49.8459 3.0783 203° Southwest  Level Estimated
Sun 02:09:00 AM 49.7916 3.0433 203° Southwest  Level Estimated
Sun 02:10:00 AM 49.7373 3.0084 203° Southwest  Level Estimated
Sun 02:11:00 AM 49.6830 2.9735 203° Southwest  Level Estimated
Sun 02:12:00 AM 49.6287 2.9387 203° Southwest  Level Estimated
Sun 02:13:00 AM 49.5744 2.9040 203° Southwest  Level Estimated
Sun 02:14:00 AM 49.5201 2.8694 202° Southwest  Level Estimated
Sun 02:15:00 AM 49.4658 2.8349 202° Southwest  Level Estimated
Sun 02:16:00 AM 49.4114 2.8004 202° Southwest  Level Estimated
Sun 02:17:00 AM 49.3571 2.7660 202° Southwest  Level Estimated
Sun 02:18:00 AM 49.3027 2.7317 202° Southwest  Level Estimated
Sun 02:19:00 AM 49.2483 2.6974 202° Southwest  Level Estimated
Sun 02:20:00 AM 49.1940 2.6633 202° Southwest  Level Estimated
Sun 02:21:00 AM 49.1396 2.6292 202° Southwest  Level Estimated
Sun 02:22:00 AM 49.0852 2.5952 202° Southwest  Level Estimated
Sun 02:23:00 AM 49.0308 2.5612 202° Southwest  Level Estimated
Sun 02:24:00 AM 49.0128 2.5500 202° Southwest  Level Estimated
Sun 02:25:00 AM 49.0128 2.5500 180° South  Level Estimated
Sun 02:26:00 AM 49.0128 2.5500 180° South  Level Estimated
Sun 02:27:00 AM 49.0128 2.5500 180° South  Level Estimated
Sun 02:28:00 AM 49.0128 2.5500 180° South  Level Estimated
Sun 02:29:00 AM 49.0128 2.5500 180° South  Level Estimated
Sun 02:30:00 AM 49.0128 2.5500 180° South  Level Estimated
Sun 02:31:00 AM 49.0128 2.5500 180° South  Level Estimated

Login

Don't have an account? Register now (free) for customized features, flight alerts, and more!